sensor_id;sensor_type;location;lat;lon;timestamp;P1;durP1;ratioP1;P2;durP2;ratioP2
63444;SDS011;49573;47.682;9.170;2023-02-01T00:01:49;8.27;;;4.80;;
63444;SDS011;49573;47.682;9.170;2023-02-01T00:04:35;9.77;;;4.82;;
63444;SDS011;49573;47.682;9.170;2023-02-01T00:07:21;8.80;;;4.85;;
63444;SDS011;49573;47.682;9.170;2023-02-01T00:10:09;8.50;;;4.38;;
63444;SDS011;49573;47.682;9.170;2023-02-01T00:12:56;7.32;;;4.35;;
63444;SDS011;49573;47.682;9.170;2023-02-01T00:15:42;6.82;;;4.18;;
63444;SDS011;49573;47.682;9.170;2023-02-01T00:18:28;9.40;;;4.53;;
63444;SDS011;49573;47.682;9.170;2023-02-01T00:21:14;7.25;;;4.35;;
63444;SDS011;49573;47.682;9.170;2023-02-01T00:24:02;7.80;;;4.05;;
63444;SDS011;49573;47.682;9.170;2023-02-01T00:26:50;8.77;;;4.85;;
63444;SDS011;49573;47.682;9.170;2023-02-01T00:29:36;8.40;;;4.43;;
63444;SDS011;49573;47.682;9.170;2023-02-01T00:32:22;8.65;;;4.25;;
63444;SDS011;49573;47.682;9.170;2023-02-01T00:35:08;7.20;;;4.15;;
63444;SDS011;49573;47.682;9.170;2023-02-01T00:37:54;6.15;;;3.78;;
63444;SDS011;49573;47.682;9.170;2023-02-01T00:40:43;7.95;;;4.30;;
63444;SDS011;49573;47.682;9.170;2023-02-01T00:43:31;7.80;;;4.38;;
63444;SDS011;49573;47.682;9.170;2023-02-01T00:46:18;8.27;;;4.28;;
63444;SDS011;49573;47.682;9.170;2023-02-01T00:49:05;7.43;;;3.90;;
63444;SDS011;49573;47.682;9.170;2023-02-01T00:51:52;7.00;;;4.30;;
63444;SDS011;49573;47.682;9.170;2023-02-01T00:54:38;7.30;;;3.75;;
63444;SDS011;49573;47.682;9.170;2023-02-01T00:57:24;9.40;;;4.30;;
63444;SDS011;49573;47.682;9.170;2023-02-01T01:00:12;7.50;;;4.70;;
63444;SDS011;49573;47.682;9.170;2023-02-01T01:02:59;6.50;;;4.05;;
63444;SDS011;49573;47.682;9.170;2023-02-01T01:05:45;6.25;;;4.18;;
63444;SDS011;49573;47.682;9.170;2023-02-01T01:08:32;8.23;;;4.60;;
63444;SDS011;49573;47.682;9.170;2023-02-01T01:11:19;7.85;;;4.28;;
63444;SDS011;49573;47.682;9.170;2023-02-01T01:14:07;10.50;;;4.68;;
63444;SDS011;49573;47.682;9.170;2023-02-01T01:19:41;9.48;;;4.15;;
63444;SDS011;49573;47.682;9.170;2023-02-01T01:22:27;11.68;;;4.93;;
63444;SDS011;49573;47.682;9.170;2023-02-01T01:25:13;7.38;;;4.05;;
63444;SDS011;49573;47.682;9.170;2023-02-01T01:27:59;8.88;;;4.53;;
63444;SDS011;49573;47.682;9.170;2023-02-01T01:30:45;7.03;;;4.18;;
63444;SDS011;49573;47.682;9.170;2023-02-01T01:33:33;7.13;;;4.40;;
63444;SDS011;49573;47.682;9.170;2023-02-01T01:36:19;7.43;;;4.47;;
63444;SDS011;49573;47.682;9.170;2023-02-01T01:39:06;9.15;;;4.75;;
63444;SDS011;49573;47.682;9.170;2023-02-01T01:41:52;8.07;;;4.10;;
63444;SDS011;49573;47.682;9.170;2023-02-01T01:44:55;7.95;;;4.47;;
63444;SDS011;49573;47.682;9.170;2023-02-01T01:47:45;8.77;;;4.40;;
63444;SDS011;49573;47.682;9.170;2023-02-01T01:50:37;7.25;;;4.15;;
63444;SDS011;49573;47.682;9.170;2023-02-01T01:53:29;7.55;;;4.43;;
63444;SDS011;49573;47.682;9.170;2023-02-01T01:56:18;7.55;;;4.15;;
63444;SDS011;49573;47.682;9.170;2023-02-01T01:59:04;8.47;;;4.57;;
63444;SDS011;49573;47.682;9.170;2023-02-01T02:01:53;7.40;;;4.38;;
63444;SDS011;49573;47.682;9.170;2023-02-01T02:04:39;6.90;;;4.15;;
63444;SDS011;49573;47.682;9.170;2023-02-01T02:07:28;8.00;;;4.53;;
63444;SDS011;49573;47.682;9.170;2023-02-01T02:10:17;7.22;;;4.45;;
63444;SDS011;49573;47.682;9.170;2023-02-01T02:13:03;6.57;;;4.57;;
63444;SDS011;49573;47.682;9.170;2023-02-01T02:15:52;7.90;;;4.40;;
63444;SDS011;49573;47.682;9.170;2023-02-01T02:19:01;7.55;;;4.22;;
63444;SDS011;49573;47.682;9.170;2023-02-01T02:24:52;8.30;;;5.00;;
63444;SDS011;49573;47.682;9.170;2023-02-01T02:27:51;8.18;;;4.43;;
63444;SDS011;49573;47.682;9.170;2023-02-01T02:30:53;9.75;;;4.97;;
63444;SDS011;49573;47.682;9.170;2023-02-01T02:33:58;8.63;;;5.13;;
63444;SDS011;49573;47.682;9.170;2023-02-01T02:36:59;8.98;;;4.97;;
63444;SDS011;49573;47.682;9.170;2023-02-01T02:39:52;10.27;;;5.38;;
63444;SDS011;49573;47.682;9.170;2023-02-01T02:42:47;9.35;;;4.70;;
63444;SDS011;49573;47.682;9.170;2023-02-01T02:46:00;9.32;;;4.97;;
63444;SDS011;49573;47.682;9.170;2023-02-01T02:49:11;7.53;;;4.93;;
63444;SDS011;49573;47.682;9.170;2023-02-01T02:52:02;8.63;;;5.15;;
63444;SDS011;49573;47.682;9.170;2023-02-01T02:55:09;8.82;;;5.07;;
63444;SDS011;49573;47.682;9.170;2023-02-01T02:57:56;8.23;;;5.32;;
63444;SDS011;49573;47.682;9.170;2023-02-01T03:01:02;9.68;;;5.43;;
63444;SDS011;49573;47.682;9.170;2023-02-01T03:04:07;9.63;;;5.45;;
63444;SDS011;49573;47.682;9.170;2023-02-01T03:10:21;9.95;;;5.35;;
63444;SDS011;49573;47.682;9.170;2023-02-01T03:13:13;9.85;;;5.70;;
63444;SDS011;49573;47.682;9.170;2023-02-01T03:16:03;9.60;;;5.32;;
63444;SDS011;49573;47.682;9.170;2023-02-01T03:18:59;10.77;;;5.80;;
63444;SDS011;49573;47.682;9.170;2023-02-01T03:21:52;12.05;;;5.00;;
63444;SDS011;49573;47.682;9.170;2023-02-01T03:24:43;10.23;;;5.70;;
63444;SDS011;49573;47.682;9.170;2023-02-01T03:27:34;9.48;;;5.63;;
63444;SDS011;49573;47.682;9.170;2023-02-01T03:30:24;10.52;;;5.30;;
63444;SDS011;49573;47.682;9.170;2023-02-01T03:33:13;8.90;;;5.50;;
63444;SDS011;49573;47.682;9.170;2023-02-01T03:36:10;9.35;;;5.88;;
63444;SDS011;49573;47.682;9.170;2023-02-01T03:39:02;9.57;;;5.78;;
63444;SDS011;49573;47.682;9.170;2023-02-01T03:41:52;11.85;;;6.10;;
63444;SDS011;49573;47.682;9.170;2023-02-01T03:44:43;11.35;;;6.25;;
63444;SDS011;49573;47.682;9.170;2023-02-01T03:47:36;10.43;;;6.15;;
63444;SDS011;49573;47.682;9.170;2023-02-01T03:50:24;10.88;;;6.15;;
63444;SDS011;49573;47.682;9.170;2023-02-01T03:53:13;14.75;;;6.30;;
63444;SDS011;49573;47.682;9.170;2023-02-01T03:56:03;13.00;;;6.25;;
63444;SDS011;49573;47.682;9.170;2023-02-01T03:58:49;9.55;;;6.07;;
63444;SDS011;49573;47.682;9.170;2023-02-01T04:01:45;13.50;;;5.85;;
63444;SDS011;49573;47.682;9.170;2023-02-01T04:04:31;11.15;;;5.85;;
63444;SDS011;49573;47.682;9.170;2023-02-01T04:07:18;10.40;;;5.80;;
63444;SDS011;49573;47.682;9.170;2023-02-01T04:10:04;10.77;;;5.78;;
63444;SDS011;49573;47.682;9.170;2023-02-01T04:12:51;11.57;;;6.32;;
63444;SDS011;49573;47.682;9.170;2023-02-01T04:15:37;12.63;;;5.95;;
63444;SDS011;49573;47.682;9.170;2023-02-01T04:18:25;9.57;;;5.85;;
63444;SDS011;49573;47.682;9.170;2023-02-01T04:21:11;10.32;;;6.35;;
63444;SDS011;49573;47.682;9.170;2023-02-01T04:23:57;10.57;;;6.25;;
63444;SDS011;49573;47.682;9.170;2023-02-01T04:26:43;11.73;;;6.23;;
63444;SDS011;49573;47.682;9.170;2023-02-01T04:29:29;10.20;;;6.30;;
63444;SDS011;49573;47.682;9.170;2023-02-01T04:32:15;10.40;;;6.10;;
63444;SDS011;49573;47.682;9.170;2023-02-01T04:35:03;12.10;;;6.27;;
63444;SDS011;49573;47.682;9.170;2023-02-01T04:37:49;9.82;;;5.78;;
63444;SDS011;49573;47.682;9.170;2023-02-01T04:40:35;14.18;;;6.40;;
63444;SDS011;49573;47.682;9.170;2023-02-01T04:43:23;11.02;;;6.10;;
63444;SDS011;49573;47.682;9.170;2023-02-01T04:46:09;14.13;;;6.53;;
63444;SDS011;49573;47.682;9.170;2023-02-01T04:48:55;10.70;;;5.70;;
63444;SDS011;49573;47.682;9.170;2023-02-01T04:51:42;11.52;;;6.05;;
63444;SDS011;49573;47.682;9.170;2023-02-01T04:54:28;10.25;;;6.03;;
63444;SDS011;49573;47.682;9.170;2023-02-01T04:57:14;10.20;;;5.93;;
63444;SDS011;49573;47.682;9.170;2023-02-01T05:00:00;12.05;;;7.00;;
63444;SDS011;49573;47.682;9.170;2023-02-01T05:02:46;12.85;;;6.20;;
63444;SDS011;49573;47.682;9.170;2023-02-01T05:05:32;11.35;;;6.63;;
63444;SDS011;49573;47.682;9.170;2023-02-01T05:08:20;10.52;;;6.32;;
63444;SDS011;49573;47.682;9.170;2023-02-01T05:11:07;12.10;;;6.63;;
63444;SDS011;49573;47.682;9.170;2023-02-01T05:14:14;11.20;;;6.75;;
63444;SDS011;49573;47.682;9.170;2023-02-01T05:17:00;11.07;;;6.18;;
63444;SDS011;49573;47.682;9.170;2023-02-01T05:19:46;12.30;;;6.70;;
63444;SDS011;49573;47.682;9.170;2023-02-01T05:22:32;10.50;;;6.63;;
63444;SDS011;49573;47.682;9.170;2023-02-01T05:25:19;11.40;;;6.40;;
63444;SDS011;49573;47.682;9.170;2023-02-01T05:28:05;10.60;;;5.85;;
63444;SDS011;49573;47.682;9.170;2023-02-01T05:30:51;12.65;;;6.72;;
63444;SDS011;49573;47.682;9.170;2023-02-01T05:33:37;13.40;;;6.43;;
63444;SDS011;49573;47.682;9.170;2023-02-01T05:36:23;9.52;;;6.32;;
63444;SDS011;49573;47.682;9.170;2023-02-01T05:39:13;10.23;;;5.68;;
63444;SDS011;49573;47.682;9.170;2023-02-01T05:42:01;11.43;;;6.13;;
63444;SDS011;49573;47.682;9.170;2023-02-01T05:44:47;9.75;;;5.78;;
63444;SDS011;49573;47.682;9.170;2023-02-01T05:47:34;13.20;;;6.25;;
63444;SDS011;49573;47.682;9.170;2023-02-01T05:50:21;10.45;;;5.97;;
63444;SDS011;49573;47.682;9.170;2023-02-01T05:53:07;10.98;;;6.47;;
63444;SDS011;49573;47.682;9.170;2023-02-01T05:55:54;10.00;;;6.22;;
63444;SDS011;49573;47.682;9.170;2023-02-01T05:58:42;10.50;;;6.45;;
63444;SDS011;49573;47.682;9.170;2023-02-01T06:01:28;9.85;;;6.15;;
63444;SDS011;49573;47.682;9.170;2023-02-01T06:04:14;9.90;;;5.70;;
63444;SDS011;49573;47.682;9.170;2023-02-01T06:07:00;10.90;;;6.32;;
63444;SDS011;49573;47.682;9.170;2023-02-01T06:09:46;12.98;;;6.00;;
63444;SDS011;49573;47.682;9.170;2023-02-01T06:12:32;11.70;;;6.05;;
63444;SDS011;49573;47.682;9.170;2023-02-01T06:15:20;11.02;;;5.90;;
63444;SDS011;49573;47.682;9.170;2023-02-01T06:18:06;10.30;;;6.07;;
63444;SDS011;49573;47.682;9.170;2023-02-01T06:20:52;11.70;;;5.82;;
63444;SDS011;49573;47.682;9.170;2023-02-01T06:23:39;10.93;;;6.93;;
63444;SDS011;49573;47.682;9.170;2023-02-01T06:26:25;8.33;;;5.60;;
63444;SDS011;49573;47.682;9.170;2023-02-01T06:29:13;10.07;;;5.57;;
63444;SDS011;49573;47.682;9.170;2023-02-01T06:32:01;10.93;;;6.18;;
63444;SDS011;49573;47.682;9.170;2023-02-01T06:34:48;10.70;;;5.75;;
63444;SDS011;49573;47.682;9.170;2023-02-01T06:37:35;9.82;;;5.70;;
63444;SDS011;49573;47.682;9.170;2023-02-01T06:40:22;10.07;;;5.93;;
63444;SDS011;49573;47.682;9.170;2023-02-01T06:43:08;9.18;;;6.13;;
63444;SDS011;49573;47.682;9.170;2023-02-01T06:45:58;12.70;;;6.80;;
63444;SDS011;49573;47.682;9.170;2023-02-01T06:48:47;11.65;;;5.88;;
63444;SDS011;49573;47.682;9.170;2023-02-01T06:51:34;10.95;;;5.90;;
63444;SDS011;49573;47.682;9.170;2023-02-01T06:54:20;10.60;;;6.03;;
63444;SDS011;49573;47.682;9.170;2023-02-01T06:57:06;10.98;;;6.90;;
63444;SDS011;49573;47.682;9.170;2023-02-01T06:59:52;13.43;;;6.32;;
63444;SDS011;49573;47.682;9.170;2023-02-01T07:02:38;11.15;;;5.93;;
63444;SDS011;49573;47.682;9.170;2023-02-01T07:05:26;11.02;;;6.57;;
63444;SDS011;49573;47.682;9.170;2023-02-01T07:08:12;11.15;;;6.35;;
63444;SDS011;49573;47.682;9.170;2023-02-01T07:11:00;11.73;;;5.87;;
63444;SDS011;49573;47.682;9.170;2023-02-01T07:13:47;10.23;;;5.68;;
63444;SDS011;49573;47.682;9.170;2023-02-01T07:16:33;9.48;;;5.78;;
63444;SDS011;49573;47.682;9.170;2023-02-01T07:19:19;8.97;;;5.50;;
63444;SDS011;49573;47.682;9.170;2023-02-01T07:22:07;9.38;;;5.28;;
63444;SDS011;49573;47.682;9.170;2023-02-01T07:24:53;9.00;;;5.53;;
63444;SDS011;49573;47.682;9.170;2023-02-01T07:27:39;7.90;;;5.25;;
63444;SDS011;49573;47.682;9.170;2023-02-01T07:30:25;9.43;;;5.47;;
63444;SDS011;49573;47.682;9.170;2023-02-01T07:33:11;9.57;;;5.03;;
63444;SDS011;49573;47.682;9.170;2023-02-01T07:35:57;11.02;;;5.30;;
63444;SDS011;49573;47.682;9.170;2023-02-01T07:38:48;10.20;;;5.53;;
63444;SDS011;49573;47.682;9.170;2023-02-01T07:41:36;10.63;;;5.40;;
63444;SDS011;49573;47.682;9.170;2023-02-01T07:44:22;11.57;;;5.75;;
63444;SDS011;49573;47.682;9.170;2023-02-01T07:47:08;9.57;;;5.32;;
63444;SDS011;49573;47.682;9.170;2023-02-01T07:49:54;10.82;;;5.75;;
63444;SDS011;49573;47.682;9.170;2023-02-01T07:52:40;10.93;;;6.25;;
63444;SDS011;49573;47.682;9.170;2023-02-01T07:55:28;10.43;;;5.78;;
63444;SDS011;49573;47.682;9.170;2023-02-01T07:58:14;9.55;;;6.10;;
63444;SDS011;49573;47.682;9.170;2023-02-01T08:01:00;9.85;;;6.03;;
63444;SDS011;49573;47.682;9.170;2023-02-01T08:04:05;12.50;;;6.60;;
63444;SDS011;49573;47.682;9.170;2023-02-01T08:06:51;15.77;;;8.00;;
63444;SDS011;49573;47.682;9.170;2023-02-01T08:09:37;12.93;;;6.82;;
63444;SDS011;49573;47.682;9.170;2023-02-01T08:12:24;12.38;;;6.22;;
63444;SDS011;49573;47.682;9.170;2023-02-01T08:15:10;11.65;;;6.75;;
63444;SDS011;49573;47.682;9.170;2023-02-01T08:17:57;15.10;;;6.75;;
63444;SDS011;49573;47.682;9.170;2023-02-01T08:20:43;12.27;;;6.90;;
63444;SDS011;49573;47.682;9.170;2023-02-01T08:23:30;12.40;;;7.13;;
63444;SDS011;49573;47.682;9.170;2023-02-01T08:26:18;12.45;;;6.57;;
63444;SDS011;49573;47.682;9.170;2023-02-01T08:29:08;12.50;;;6.85;;
63444;SDS011;49573;47.682;9.170;2023-02-01T08:31:56;15.23;;;7.55;;
63444;SDS011;49573;47.682;9.170;2023-02-01T08:34:42;11.93;;;7.25;;
63444;SDS011;49573;47.682;9.170;2023-02-01T08:37:28;14.30;;;7.63;;
63444;SDS011;49573;47.682;9.170;2023-02-01T08:40:15;15.03;;;8.20;;
63444;SDS011;49573;47.682;9.170;2023-02-01T08:43:01;13.27;;;7.05;;
63444;SDS011;49573;47.682;9.170;2023-02-01T08:45:49;11.63;;;7.03;;
63444;SDS011;49573;47.682;9.170;2023-02-01T08:48:35;16.83;;;7.88;;
63444;SDS011;49573;47.682;9.170;2023-02-01T08:51:22;13.68;;;7.45;;
63444;SDS011;49573;47.682;9.170;2023-02-01T08:54:08;13.68;;;7.93;;
63444;SDS011;49573;47.682;9.170;2023-02-01T08:56:54;15.20;;;8.32;;
63444;SDS011;49573;47.682;9.170;2023-02-01T08:59:41;16.27;;;8.15;;
63444;SDS011;49573;47.682;9.170;2023-02-01T09:02:30;17.08;;;7.50;;
63444;SDS011;49573;47.682;9.170;2023-02-01T09:05:16;13.07;;;7.47;;
63444;SDS011;49573;47.682;9.170;2023-02-01T09:08:07;11.77;;;7.18;;
63444;SDS011;49573;47.682;9.170;2023-02-01T09:10:53;12.50;;;7.43;;
63444;SDS011;49573;47.682;9.170;2023-02-01T09:13:43;13.25;;;7.25;;
63444;SDS011;49573;47.682;9.170;2023-02-01T09:16:29;13.13;;;6.97;;
63444;SDS011;49573;47.682;9.170;2023-02-01T09:19:17;14.48;;;7.28;;
63444;SDS011;49573;47.682;9.170;2023-02-01T09:22:03;15.18;;;7.35;;
63444;SDS011;49573;47.682;9.170;2023-02-01T09:24:49;14.02;;;7.25;;
63444;SDS011;49573;47.682;9.170;2023-02-01T09:27:35;12.38;;;6.75;;
63444;SDS011;49573;47.682;9.170;2023-02-01T09:30:21;12.48;;;7.13;;
63444;SDS011;49573;47.682;9.170;2023-02-01T09:33:07;13.50;;;7.15;;
63444;SDS011;49573;47.682;9.170;2023-02-01T09:35:56;14.60;;;7.10;;
63444;SDS011;49573;47.682;9.170;2023-02-01T09:38:43;13.02;;;6.60;;
63444;SDS011;49573;47.682;9.170;2023-02-01T09:41:35;14.07;;;7.40;;
63444;SDS011;49573;47.682;9.170;2023-02-01T09:44:32;12.45;;;6.18;;
63444;SDS011;49573;47.682;9.170;2023-02-01T09:47:27;12.40;;;6.38;;
63444;SDS011;49573;47.682;9.170;2023-02-01T09:50:15;11.65;;;6.53;;
63444;SDS011;49573;47.682;9.170;2023-02-01T09:53:11;11.40;;;6.70;;
63444;SDS011;49573;47.682;9.170;2023-02-01T09:56:04;12.10;;;6.95;;
63444;SDS011;49573;47.682;9.170;2023-02-01T09:58:52;9.52;;;5.43;;
63444;SDS011;49573;47.682;9.170;2023-02-01T10:01:44;10.75;;;6.07;;
63444;SDS011;49573;47.682;9.170;2023-02-01T10:04:30;12.85;;;6.65;;
63444;SDS011;49573;47.682;9.170;2023-02-01T10:07:21;11.38;;;6.03;;
63444;SDS011;49573;47.682;9.170;2023-02-01T10:10:19;10.20;;;6.03;;
63444;SDS011;49573;47.682;9.170;2023-02-01T10:13:16;11.63;;;5.95;;
63444;SDS011;49573;47.682;9.170;2023-02-01T10:16:26;14.48;;;5.97;;
63444;SDS011;49573;47.682;9.170;2023-02-01T10:19:24;8.85;;;5.50;;
63444;SDS011;49573;47.682;9.170;2023-02-01T10:22:23;9.85;;;5.70;;
63444;SDS011;49573;47.682;9.170;2023-02-01T10:25:23;11.25;;;5.25;;
63444;SDS011;49573;47.682;9.170;2023-02-01T10:28:14;10.20;;;6.20;;
63444;SDS011;49573;47.682;9.170;2023-02-01T10:31:03;9.30;;;5.40;;
63444;SDS011;49573;47.682;9.170;2023-02-01T10:33:51;13.05;;;5.93;;
63444;SDS011;49573;47.682;9.170;2023-02-01T10:36:41;13.20;;;6.07;;
63444;SDS011;49573;47.682;9.170;2023-02-01T10:39:35;9.30;;;4.93;;
63444;SDS011;49573;47.682;9.170;2023-02-01T10:42:25;9.98;;;5.28;;
63444;SDS011;49573;47.682;9.170;2023-02-01T10:45:13;11.68;;;5.78;;
63444;SDS011;49573;47.682;9.170;2023-02-01T10:48:02;11.38;;;5.63;;
63444;SDS011;49573;47.682;9.170;2023-02-01T10:50:51;11.48;;;4.90;;
63444;SDS011;49573;47.682;9.170;2023-02-01T10:53:41;11.73;;;5.57;;
63444;SDS011;49573;47.682;9.170;2023-02-01T10:56:34;11.15;;;4.60;;
63444;SDS011;49573;47.682;9.170;2023-02-01T10:59:24;8.52;;;4.75;;
63444;SDS011;49573;47.682;9.170;2023-02-01T11:02:19;7.72;;;4.75;;
63444;SDS011;49573;47.682;9.170;2023-02-01T11:05:14;7.63;;;4.82;;
63444;SDS011;49573;47.682;9.170;2023-02-01T11:08:05;8.88;;;5.15;;
63444;SDS011;49573;47.682;9.170;2023-02-01T11:10:59;6.57;;;3.85;;
63444;SDS011;49573;47.682;9.170;2023-02-01T11:13:51;6.18;;;3.85;;
63444;SDS011;49573;47.682;9.170;2023-02-01T11:16:40;8.75;;;4.22;;
63444;SDS011;49573;47.682;9.170;2023-02-01T11:19:33;8.02;;;4.28;;
63444;SDS011;49573;47.682;9.170;2023-02-01T11:22:19;6.30;;;3.72;;
63444;SDS011;49573;47.682;9.170;2023-02-01T11:25:07;5.90;;;3.53;;
63444;SDS011;49573;47.682;9.170;2023-02-01T11:27:55;6.43;;;3.80;;
63444;SDS011;49573;47.682;9.170;2023-02-01T11:30:43;7.63;;;4.28;;
63444;SDS011;49573;47.682;9.170;2023-02-01T11:33:33;7.07;;;3.58;;
63444;SDS011;49573;47.682;9.170;2023-02-01T11:36:25;6.47;;;3.67;;
63444;SDS011;49573;47.682;9.170;2023-02-01T11:39:18;7.95;;;3.72;;
63444;SDS011;49573;47.682;9.170;2023-02-01T11:42:12;5.63;;;3.25;;
63444;SDS011;49573;47.682;9.170;2023-02-01T11:45:17;5.57;;;2.90;;
63444;SDS011;49573;47.682;9.170;2023-02-01T11:48:07;5.80;;;3.40;;
63444;SDS011;49573;47.682;9.170;2023-02-01T11:51:00;6.10;;;3.80;;
63444;SDS011;49573;47.682;9.170;2023-02-01T11:54:12;5.28;;;3.60;;
63444;SDS011;49573;47.682;9.170;2023-02-01T11:57:20;4.78;;;3.08;;
63444;SDS011;49573;47.682;9.170;2023-02-01T12:00:24;6.80;;;3.65;;
63444;SDS011;49573;47.682;9.170;2023-02-01T12:03:26;7.38;;;3.20;;
63444;SDS011;49573;47.682;9.170;2023-02-01T12:06:42;5.60;;;2.97;;
63444;SDS011;49573;47.682;9.170;2023-02-01T12:09:41;5.28;;;3.28;;
63444;SDS011;49573;47.682;9.170;2023-02-01T12:12:42;5.75;;;3.70;;
63444;SDS011;49573;47.682;9.170;2023-02-01T12:15:40;8.40;;;3.38;;
63444;SDS011;49573;47.682;9.170;2023-02-01T12:18:43;5.60;;;3.17;;
63444;SDS011;49573;47.682;9.170;2023-02-01T12:21:45;8.85;;;3.40;;
63444;SDS011;49573;47.682;9.170;2023-02-01T12:24:45;12.00;;;3.72;;
63444;SDS011;49573;47.682;9.170;2023-02-01T12:27:46;8.07;;;3.60;;
63444;SDS011;49573;47.682;9.170;2023-02-01T12:34:20;7.32;;;3.58;;
63444;SDS011;49573;47.682;9.170;2023-02-01T12:37:22;8.52;;;3.80;;
63444;SDS011;49573;47.682;9.170;2023-02-01T12:40:20;5.35;;;3.75;;
63444;SDS011;49573;47.682;9.170;2023-02-01T12:43:13;8.25;;;4.25;;
63444;SDS011;49573;47.682;9.170;2023-02-01T12:46:08;8.00;;;3.85;;
63444;SDS011;49573;47.682;9.170;2023-02-01T12:48:59;9.38;;;4.68;;
63444;SDS011;49573;47.682;9.170;2023-02-01T12:51:49;8.85;;;3.80;;
63444;SDS011;49573;47.682;9.170;2023-02-01T12:54:39;7.78;;;3.72;;
63444;SDS011;49573;47.682;9.170;2023-02-01T12:57:32;7.20;;;4.07;;
63444;SDS011;49573;47.682;9.170;2023-02-01T13:00:23;6.47;;;3.78;;
63444;SDS011;49573;47.682;9.170;2023-02-01T13:03:18;6.13;;;4.03;;
63444;SDS011;49573;47.682;9.170;2023-02-01T13:06:15;6.97;;;3.88;;
63444;SDS011;49573;47.682;9.170;2023-02-01T13:09:04;6.82;;;3.42;;
63444;SDS011;49573;47.682;9.170;2023-02-01T13:12:04;11.23;;;3.83;;
63444;SDS011;49573;47.682;9.170;2023-02-01T13:14:58;12.20;;;3.78;;
63444;SDS011;49573;47.682;9.170;2023-02-01T13:17:49;7.88;;;3.90;;
63444;SDS011;49573;47.682;9.170;2023-02-01T13:20:41;9.48;;;3.45;;
63444;SDS011;49573;47.682;9.170;2023-02-01T13:23:33;7.93;;;3.50;;
63444;SDS011;49573;47.682;9.170;2023-02-01T13:26:21;7.28;;;2.83;;
63444;SDS011;49573;47.682;9.170;2023-02-01T13:29:09;6.22;;;2.75;;
63444;SDS011;49573;47.682;9.170;2023-02-01T13:32:07;9.25;;;2.95;;
63444;SDS011;49573;47.682;9.170;2023-02-01T13:38:31;5.15;;;2.50;;
63444;SDS011;49573;47.682;9.170;2023-02-01T13:41:29;9.55;;;2.90;;
63444;SDS011;49573;47.682;9.170;2023-02-01T13:44:22;10.60;;;2.53;;
63444;SDS011;49573;47.682;9.170;2023-02-01T13:47:18;5.85;;;2.35;;
63444;SDS011;49573;47.682;9.170;2023-02-01T13:50:13;9.63;;;3.17;;
63444;SDS011;49573;47.682;9.170;2023-02-01T13:53:13;9.13;;;3.08;;
63444;SDS011;49573;47.682;9.170;2023-02-01T13:56:03;5.93;;;2.75;;
63444;SDS011;49573;47.682;9.170;2023-02-01T13:58:52;7.32;;;3.00;;
63444;SDS011;49573;47.682;9.170;2023-02-01T14:01:40;10.05;;;2.95;;
63444;SDS011;49573;47.682;9.170;2023-02-01T14:04:45;8.70;;;2.60;;
63444;SDS011;49573;47.682;9.170;2023-02-01T14:07:33;5.43;;;2.67;;
63444;SDS011;49573;47.682;9.170;2023-02-01T14:13:39;6.68;;;2.58;;
63444;SDS011;49573;47.682;9.170;2023-02-01T14:16:26;5.32;;;2.45;;
63444;SDS011;49573;47.682;9.170;2023-02-01T14:19:20;8.18;;;2.13;;
63444;SDS011;49573;47.682;9.170;2023-02-01T14:25:18;8.30;;;2.88;;
63444;SDS011;49573;47.682;9.170;2023-02-01T14:28:09;11.15;;;2.80;;
63444;SDS011;49573;47.682;9.170;2023-02-01T14:30:57;6.30;;;2.60;;
63444;SDS011;49573;47.682;9.170;2023-02-01T14:33:44;5.70;;;2.13;;
63444;SDS011;49573;47.682;9.170;2023-02-01T14:36:42;11.07;;;3.33;;
63444;SDS011;49573;47.682;9.170;2023-02-01T14:39:33;8.02;;;2.40;;
63444;SDS011;49573;47.682;9.170;2023-02-01T14:42:24;10.13;;;2.90;;
63444;SDS011;49573;47.682;9.170;2023-02-01T14:48:45;10.82;;;2.75;;
63444;SDS011;49573;47.682;9.170;2023-02-01T14:51:32;8.05;;;3.10;;
63444;SDS011;49573;47.682;9.170;2023-02-01T14:54:20;6.53;;;2.70;;
63444;SDS011;49573;47.682;9.170;2023-02-01T14:57:11;9.85;;;2.50;;
63444;SDS011;49573;47.682;9.170;2023-02-01T15:00:05;7.30;;;3.30;;
63444;SDS011;49573;47.682;9.170;2023-02-01T15:03:12;6.22;;;2.70;;
63444;SDS011;49573;47.682;9.170;2023-02-01T15:06:12;8.25;;;2.28;;
63444;SDS011;49573;47.682;9.170;2023-02-01T15:09:08;5.72;;;2.50;;
63444;SDS011;49573;47.682;9.170;2023-02-01T15:11:58;8.55;;;2.75;;
63444;SDS011;49573;47.682;9.170;2023-02-01T15:14:47;7.38;;;2.35;;
63444;SDS011;49573;47.682;9.170;2023-02-01T15:17:54;8.30;;;2.70;;
63444;SDS011;49573;47.682;9.170;2023-02-01T15:20:41;8.52;;;3.15;;
63444;SDS011;49573;47.682;9.170;2023-02-01T15:23:27;8.68;;;3.13;;
63444;SDS011;49573;47.682;9.170;2023-02-01T15:29:12;5.57;;;2.55;;
63444;SDS011;49573;47.682;9.170;2023-02-01T15:31:59;7.03;;;2.65;;
63444;SDS011;49573;47.682;9.170;2023-02-01T15:34:46;9.43;;;2.90;;
63444;SDS011;49573;47.682;9.170;2023-02-01T15:37:34;12.20;;;2.63;;
63444;SDS011;49573;47.682;9.170;2023-02-01T15:40:20;7.65;;;3.40;;
63444;SDS011;49573;47.682;9.170;2023-02-01T15:45:58;12.35;;;2.90;;
63444;SDS011;49573;47.682;9.170;2023-02-01T15:48:47;9.02;;;2.88;;
63444;SDS011;49573;47.682;9.170;2023-02-01T15:51:36;9.43;;;2.58;;
63444;SDS011;49573;47.682;9.170;2023-02-01T15:54:23;7.05;;;3.30;;
63444;SDS011;49573;47.682;9.170;2023-02-01T15:57:14;10.43;;;3.22;;
63444;SDS011;49573;47.682;9.170;2023-02-01T16:00:06;7.50;;;2.67;;
63444;SDS011;49573;47.682;9.170;2023-02-01T16:03:15;8.50;;;3.03;;
63444;SDS011;49573;47.682;9.170;2023-02-01T16:06:11;8.80;;;2.95;;
63444;SDS011;49573;47.682;9.170;2023-02-01T16:09:12;7.28;;;2.72;;
63444;SDS011;49573;47.682;9.170;2023-02-01T16:12:00;5.68;;;2.63;;
63444;SDS011;49573;47.682;9.170;2023-02-01T16:14:47;8.65;;;2.92;;
63444;SDS011;49573;47.682;9.170;2023-02-01T16:17:33;8.57;;;2.90;;
63444;SDS011;49573;47.682;9.170;2023-02-01T16:20:20;8.05;;;2.92;;
63444;SDS011;49573;47.682;9.170;2023-02-01T16:23:07;5.47;;;2.53;;
63444;SDS011;49573;47.682;9.170;2023-02-01T16:25:54;12.25;;;3.03;;
63444;SDS011;49573;47.682;9.170;2023-02-01T16:28:40;8.25;;;3.08;;
63444;SDS011;49573;47.682;9.170;2023-02-01T16:31:27;6.47;;;2.80;;
63444;SDS011;49573;47.682;9.170;2023-02-01T16:34:14;10.68;;;3.67;;
63444;SDS011;49573;47.682;9.170;2023-02-01T16:37:05;5.95;;;2.42;;
63444;SDS011;49573;47.682;9.170;2023-02-01T16:39:57;10.85;;;2.92;;
63444;SDS011;49573;47.682;9.170;2023-02-01T16:42:43;8.88;;;3.08;;
63444;SDS011;49573;47.682;9.170;2023-02-01T16:45:33;8.13;;;3.10;;
63444;SDS011;49573;47.682;9.170;2023-02-01T16:48:20;8.50;;;2.60;;
63444;SDS011;49573;47.682;9.170;2023-02-01T16:51:09;9.57;;;3.05;;
63444;SDS011;49573;47.682;9.170;2023-02-01T16:53:59;8.15;;;2.60;;
63444;SDS011;49573;47.682;9.170;2023-02-01T16:56:45;7.22;;;3.00;;
63444;SDS011;49573;47.682;9.170;2023-02-01T16:59:31;11.90;;;3.80;;
63444;SDS011;49573;47.682;9.170;2023-02-01T17:02:18;7.53;;;3.00;;
63444;SDS011;49573;47.682;9.170;2023-02-01T17:05:05;10.88;;;3.90;;
63444;SDS011;49573;47.682;9.170;2023-02-01T17:07:52;12.95;;;3.60;;
63444;SDS011;49573;47.682;9.170;2023-02-01T17:10:39;10.05;;;3.22;;
63444;SDS011;49573;47.682;9.170;2023-02-01T17:13:25;6.70;;;3.40;;
63444;SDS011;49573;47.682;9.170;2023-02-01T17:16:22;10.60;;;2.92;;
63444;SDS011;49573;47.682;9.170;2023-02-01T17:19:12;10.35;;;3.28;;
63444;SDS011;49573;47.682;9.170;2023-02-01T17:22:01;10.32;;;3.17;;
63444;SDS011;49573;47.682;9.170;2023-02-01T17:24:47;8.13;;;2.63;;
63444;SDS011;49573;47.682;9.170;2023-02-01T17:27:35;7.47;;;2.60;;
63444;SDS011;49573;47.682;9.170;2023-02-01T17:30:23;6.63;;;2.97;;